sensor_id;sensor_type;location;lat;lon;timestamp;P1;durP1;ratioP1;P2;durP2;ratioP2
18176;SDS011;9213;50.858;3.964;2023-05-27T00:02:02;21.47;;;5.00;;
18176;SDS011;9213;50.858;3.964;2023-05-27T00:04:31;11.97;;;4.80;;
18176;SDS011;9213;50.858;3.964;2023-05-27T00:06:58;13.30;;;4.67;;
18176;SDS011;9213;50.858;3.964;2023-05-27T00:09:25;12.30;;;4.40;;
18176;SDS011;9213;50.858;3.964;2023-05-27T00:11:52;17.40;;;4.77;;
18176;SDS011;9213;50.858;3.964;2023-05-27T00:14:19;14.73;;;5.27;;
18176;SDS011;9213;50.858;3.964;2023-05-27T00:16:47;18.37;;;5.00;;
18176;SDS011;9213;50.858;3.964;2023-05-27T00:19:14;17.63;;;4.50;;
18176;SDS011;9213;50.858;3.964;2023-05-27T00:21:44;19.33;;;5.43;;
18176;SDS011;9213;50.858;3.964;2023-05-27T00:24:11;17.60;;;5.70;;
18176;SDS011;9213;50.858;3.964;2023-05-27T00:26:38;15.23;;;4.63;;
18176;SDS011;9213;50.858;3.964;2023-05-27T00:29:05;17.83;;;5.07;;
18176;SDS011;9213;50.858;3.964;2023-05-27T00:31:32;17.70;;;4.87;;
18176;SDS011;9213;50.858;3.964;2023-05-27T00:33:58;14.87;;;5.13;;
18176;SDS011;9213;50.858;3.964;2023-05-27T00:36:25;18.10;;;4.60;;
18176;SDS011;9213;50.858;3.964;2023-05-27T00:38:54;20.27;;;5.07;;
18176;SDS011;9213;50.858;3.964;2023-05-27T00:41:20;15.70;;;4.90;;
18176;SDS011;9213;50.858;3.964;2023-05-27T00:43:48;16.10;;;4.83;;
18176;SDS011;9213;50.858;3.964;2023-05-27T00:46:15;13.67;;;5.50;;
18176;SDS011;9213;50.858;3.964;2023-05-27T00:48:42;17.03;;;5.00;;
18176;SDS011;9213;50.858;3.964;2023-05-27T00:51:09;18.30;;;5.00;;
18176;SDS011;9213;50.858;3.964;2023-05-27T00:53:36;16.70;;;5.60;;
18176;SDS011;9213;50.858;3.964;2023-05-27T00:56:08;13.77;;;4.60;;
18176;SDS011;9213;50.858;3.964;2023-05-27T00:58:35;20.23;;;5.30;;
18176;SDS011;9213;50.858;3.964;2023-05-27T01:01:03;14.97;;;4.70;;
18176;SDS011;9213;50.858;3.964;2023-05-27T01:03:32;13.97;;;4.93;;
18176;SDS011;9213;50.858;3.964;2023-05-27T01:06:02;12.67;;;5.00;;
18176;SDS011;9213;50.858;3.964;2023-05-27T01:08:34;19.97;;;5.23;;
18176;SDS011;9213;50.858;3.964;2023-05-27T01:11:10;12.53;;;4.80;;
18176;SDS011;9213;50.858;3.964;2023-05-27T01:13:40;14.57;;;5.07;;
18176;SDS011;9213;50.858;3.964;2023-05-27T01:16:12;12.63;;;4.80;;
18176;SDS011;9213;50.858;3.964;2023-05-27T01:18:40;15.43;;;5.27;;
18176;SDS011;9213;50.858;3.964;2023-05-27T01:21:11;15.87;;;4.97;;
18176;SDS011;9213;50.858;3.964;2023-05-27T01:23:43;18.83;;;4.90;;
18176;SDS011;9213;50.858;3.964;2023-05-27T01:26:13;18.63;;;5.27;;
18176;SDS011;9213;50.858;3.964;2023-05-27T01:28:40;16.00;;;5.10;;
18176;SDS011;9213;50.858;3.964;2023-05-27T01:31:10;16.63;;;5.03;;
18176;SDS011;9213;50.858;3.964;2023-05-27T01:33:40;15.40;;;4.53;;
18176;SDS011;9213;50.858;3.964;2023-05-27T01:36:13;16.17;;;5.10;;
18176;SDS011;9213;50.858;3.964;2023-05-27T01:38:44;17.07;;;4.87;;
18176;SDS011;9213;50.858;3.964;2023-05-27T01:41:13;23.23;;;5.73;;
18176;SDS011;9213;50.858;3.964;2023-05-27T01:43:41;16.20;;;5.03;;
18176;SDS011;9213;50.858;3.964;2023-05-27T01:46:10;15.40;;;5.20;;
18176;SDS011;9213;50.858;3.964;2023-05-27T01:48:37;15.53;;;5.37;;
18176;SDS011;9213;50.858;3.964;2023-05-27T01:51:04;15.07;;;4.90;;
18176;SDS011;9213;50.858;3.964;2023-05-27T01:53:31;17.17;;;5.23;;
18176;SDS011;9213;50.858;3.964;2023-05-27T01:55:59;16.53;;;5.70;;
18176;SDS011;9213;50.858;3.964;2023-05-27T01:58:26;16.87;;;5.17;;
18176;SDS011;9213;50.858;3.964;2023-05-27T02:00:53;17.00;;;5.47;;
18176;SDS011;9213;50.858;3.964;2023-05-27T02:03:20;15.30;;;5.97;;
18176;SDS011;9213;50.858;3.964;2023-05-27T02:05:47;15.40;;;5.40;;
18176;SDS011;9213;50.858;3.964;2023-05-27T02:08:14;15.53;;;5.33;;
18176;SDS011;9213;50.858;3.964;2023-05-27T02:10:41;18.97;;;5.30;;
18176;SDS011;9213;50.858;3.964;2023-05-27T02:13:09;13.23;;;5.27;;
18176;SDS011;9213;50.858;3.964;2023-05-27T02:15:36;20.23;;;5.70;;
18176;SDS011;9213;50.858;3.964;2023-05-27T02:18:03;18.50;;;5.70;;
18176;SDS011;9213;50.858;3.964;2023-05-27T02:20:31;19.13;;;5.23;;
18176;SDS011;9213;50.858;3.964;2023-05-27T02:22:58;20.33;;;6.10;;
18176;SDS011;9213;50.858;3.964;2023-05-27T02:25:27;16.87;;;5.40;;
18176;SDS011;9213;50.858;3.964;2023-05-27T02:27:53;16.77;;;5.83;;
18176;SDS011;9213;50.858;3.964;2023-05-27T02:30:22;12.53;;;5.30;;
18176;SDS011;9213;50.858;3.964;2023-05-27T02:32:49;13.53;;;4.93;;
18176;SDS011;9213;50.858;3.964;2023-05-27T02:35:16;15.93;;;5.37;;
18176;SDS011;9213;50.858;3.964;2023-05-27T02:37:43;16.40;;;5.17;;
18176;SDS011;9213;50.858;3.964;2023-05-27T02:40:10;12.97;;;5.50;;
18176;SDS011;9213;50.858;3.964;2023-05-27T02:42:37;14.57;;;5.57;;
18176;SDS011;9213;50.858;3.964;2023-05-27T02:45:04;17.03;;;5.30;;
18176;SDS011;9213;50.858;3.964;2023-05-27T02:47:34;15.03;;;5.60;;
18176;SDS011;9213;50.858;3.964;2023-05-27T02:50:00;15.00;;;5.90;;
18176;SDS011;9213;50.858;3.964;2023-05-27T02:52:27;18.73;;;5.80;;
18176;SDS011;9213;50.858;3.964;2023-05-27T02:54:54;17.37;;;5.93;;
18176;SDS011;9213;50.858;3.964;2023-05-27T02:57:21;16.77;;;6.00;;
18176;SDS011;9213;50.858;3.964;2023-05-27T02:59:48;16.07;;;6.07;;
18176;SDS011;9213;50.858;3.964;2023-05-27T03:02:15;16.93;;;5.60;;
18176;SDS011;9213;50.858;3.964;2023-05-27T03:04:43;13.47;;;5.20;;
18176;SDS011;9213;50.858;3.964;2023-05-27T03:07:10;18.43;;;5.43;;
18176;SDS011;9213;50.858;3.964;2023-05-27T03:09:37;17.40;;;6.70;;
18176;SDS011;9213;50.858;3.964;2023-05-27T03:12:04;19.30;;;5.93;;
18176;SDS011;9213;50.858;3.964;2023-05-27T03:14:31;16.10;;;5.70;;
18176;SDS011;9213;50.858;3.964;2023-05-27T03:16:59;19.33;;;5.47;;
18176;SDS011;9213;50.858;3.964;2023-05-27T03:19:26;16.57;;;6.10;;
18176;SDS011;9213;50.858;3.964;2023-05-27T03:21:54;18.20;;;7.07;;
18176;SDS011;9213;50.858;3.964;2023-05-27T03:24:22;16.67;;;5.20;;
18176;SDS011;9213;50.858;3.964;2023-05-27T03:26:49;15.53;;;5.10;;
18176;SDS011;9213;50.858;3.964;2023-05-27T03:29:16;16.87;;;5.23;;
18176;SDS011;9213;50.858;3.964;2023-05-27T03:31:43;18.67;;;5.97;;
18176;SDS011;9213;50.858;3.964;2023-05-27T03:34:10;18.73;;;5.67;;
18176;SDS011;9213;50.858;3.964;2023-05-27T03:36:37;17.83;;;5.33;;
18176;SDS011;9213;50.858;3.964;2023-05-27T03:39:05;18.73;;;5.80;;
18176;SDS011;9213;50.858;3.964;2023-05-27T03:41:32;14.67;;;5.20;;
18176;SDS011;9213;50.858;3.964;2023-05-27T03:44:00;18.23;;;5.77;;
18176;SDS011;9213;50.858;3.964;2023-05-27T03:46:27;14.87;;;5.37;;
18176;SDS011;9213;50.858;3.964;2023-05-27T03:48:53;14.20;;;5.30;;
18176;SDS011;9213;50.858;3.964;2023-05-27T03:51:21;12.90;;;5.13;;
18176;SDS011;9213;50.858;3.964;2023-05-27T03:53:48;19.43;;;5.60;;
18176;SDS011;9213;50.858;3.964;2023-05-27T03:56:16;18.50;;;5.87;;
18176;SDS011;9213;50.858;3.964;2023-05-27T03:58:43;18.03;;;6.43;;
18176;SDS011;9213;50.858;3.964;2023-05-27T04:01:10;15.73;;;5.73;;
18176;SDS011;9213;50.858;3.964;2023-05-27T04:03:37;17.53;;;5.57;;
18176;SDS011;9213;50.858;3.964;2023-05-27T04:06:06;14.30;;;5.67;;
18176;SDS011;9213;50.858;3.964;2023-05-27T04:08:33;13.90;;;5.17;;
18176;SDS011;9213;50.858;3.964;2023-05-27T04:11:00;17.60;;;5.93;;
18176;SDS011;9213;50.858;3.964;2023-05-27T04:13:29;14.47;;;5.70;;
18176;SDS011;9213;50.858;3.964;2023-05-27T04:15:55;21.50;;;6.17;;
18176;SDS011;9213;50.858;3.964;2023-05-27T04:18:24;14.13;;;4.97;;
18176;SDS011;9213;50.858;3.964;2023-05-27T04:20:51;19.07;;;5.90;;
18176;SDS011;9213;50.858;3.964;2023-05-27T04:23:18;13.40;;;5.90;;
18176;SDS011;9213;50.858;3.964;2023-05-27T04:25:45;18.47;;;6.27;;
18176;SDS011;9213;50.858;3.964;2023-05-27T04:28:13;18.60;;;6.23;;
18176;SDS011;9213;50.858;3.964;2023-05-27T04:30:43;16.77;;;5.90;;
18176;SDS011;9213;50.858;3.964;2023-05-27T04:33:13;18.27;;;6.63;;
18176;SDS011;9213;50.858;3.964;2023-05-27T04:35:40;17.73;;;5.77;;
18176;SDS011;9213;50.858;3.964;2023-05-27T04:38:08;15.37;;;5.20;;
18176;SDS011;9213;50.858;3.964;2023-05-27T04:40:35;17.30;;;6.23;;
18176;SDS011;9213;50.858;3.964;2023-05-27T04:43:02;19.27;;;5.97;;
18176;SDS011;9213;50.858;3.964;2023-05-27T04:45:30;21.03;;;5.93;;
18176;SDS011;9213;50.858;3.964;2023-05-27T04:47:58;20.10;;;5.93;;
18176;SDS011;9213;50.858;3.964;2023-05-27T04:50:26;12.50;;;6.40;;
18176;SDS011;9213;50.858;3.964;2023-05-27T04:52:52;21.30;;;6.67;;
18176;SDS011;9213;50.858;3.964;2023-05-27T04:55:19;13.93;;;5.80;;
18176;SDS011;9213;50.858;3.964;2023-05-27T04:57:46;20.77;;;6.37;;
18176;SDS011;9213;50.858;3.964;2023-05-27T05:00:13;13.67;;;5.67;;
18176;SDS011;9213;50.858;3.964;2023-05-27T05:02:48;17.77;;;6.90;;
18176;SDS011;9213;50.858;3.964;2023-05-27T05:05:16;13.70;;;6.23;;
18176;SDS011;9213;50.858;3.964;2023-05-27T05:07:44;15.43;;;5.83;;
18176;SDS011;9213;50.858;3.964;2023-05-27T05:10:11;17.40;;;6.27;;
18176;SDS011;9213;50.858;3.964;2023-05-27T05:12:38;20.63;;;6.60;;
18176;SDS011;9213;50.858;3.964;2023-05-27T05:15:06;13.50;;;6.33;;
18176;SDS011;9213;50.858;3.964;2023-05-27T05:17:33;16.90;;;5.90;;
18176;SDS011;9213;50.858;3.964;2023-05-27T05:20:00;15.87;;;6.77;;
18176;SDS011;9213;50.858;3.964;2023-05-27T05:22:29;17.67;;;7.27;;
18176;SDS011;9213;50.858;3.964;2023-05-27T05:24:56;24.63;;;6.53;;
18176;SDS011;9213;50.858;3.964;2023-05-27T05:27:23;15.17;;;6.47;;
18176;SDS011;9213;50.858;3.964;2023-05-27T05:29:51;21.17;;;6.30;;
18176;SDS011;9213;50.858;3.964;2023-05-27T05:32:18;14.60;;;5.83;;
18176;SDS011;9213;50.858;3.964;2023-05-27T05:34:45;18.80;;;6.80;;
18176;SDS011;9213;50.858;3.964;2023-05-27T05:37:12;17.27;;;6.30;;
18176;SDS011;9213;50.858;3.964;2023-05-27T05:39:41;15.60;;;6.37;;
18176;SDS011;9213;50.858;3.964;2023-05-27T05:42:08;17.73;;;6.70;;
18176;SDS011;9213;50.858;3.964;2023-05-27T05:44:35;14.90;;;6.90;;
18176;SDS011;9213;50.858;3.964;2023-05-27T05:47:02;16.60;;;6.83;;
18176;SDS011;9213;50.858;3.964;2023-05-27T05:49:29;16.37;;;6.43;;
18176;SDS011;9213;50.858;3.964;2023-05-27T05:51:56;14.10;;;6.60;;
18176;SDS011;9213;50.858;3.964;2023-05-27T05:54:23;18.87;;;6.70;;
18176;SDS011;9213;50.858;3.964;2023-05-27T05:56:51;15.37;;;6.73;;
18176;SDS011;9213;50.858;3.964;2023-05-27T05:59:18;18.33;;;7.83;;
18176;SDS011;9213;50.858;3.964;2023-05-27T06:01:45;13.83;;;5.63;;
18176;SDS011;9213;50.858;3.964;2023-05-27T06:04:12;16.37;;;6.43;;
18176;SDS011;9213;50.858;3.964;2023-05-27T06:06:39;15.17;;;6.03;;
18176;SDS011;9213;50.858;3.964;2023-05-27T06:09:06;20.37;;;6.10;;
18176;SDS011;9213;50.858;3.964;2023-05-27T06:11:33;16.27;;;7.00;;
18176;SDS011;9213;50.858;3.964;2023-05-27T06:14:02;15.87;;;6.40;;
18176;SDS011;9213;50.858;3.964;2023-05-27T06:16:28;14.13;;;6.13;;
18176;SDS011;9213;50.858;3.964;2023-05-27T06:18:55;15.67;;;6.17;;
18176;SDS011;9213;50.858;3.964;2023-05-27T06:21:22;17.73;;;6.93;;
18176;SDS011;9213;50.858;3.964;2023-05-27T06:23:49;16.33;;;6.23;;
18176;SDS011;9213;50.858;3.964;2023-05-27T06:26:16;17.97;;;6.87;;
18176;SDS011;9213;50.858;3.964;2023-05-27T06:28:43;11.80;;;5.83;;
18176;SDS011;9213;50.858;3.964;2023-05-27T06:31:11;16.37;;;6.60;;
18176;SDS011;9213;50.858;3.964;2023-05-27T06:33:38;17.97;;;6.50;;
18176;SDS011;9213;50.858;3.964;2023-05-27T06:36:07;14.87;;;6.23;;
18176;SDS011;9213;50.858;3.964;2023-05-27T06:38:34;17.03;;;5.50;;
18176;SDS011;9213;50.858;3.964;2023-05-27T06:41:01;15.33;;;6.00;;
18176;SDS011;9213;50.858;3.964;2023-05-27T06:43:28;14.13;;;5.90;;
18176;SDS011;9213;50.858;3.964;2023-05-27T06:45:55;14.23;;;6.47;;
18176;SDS011;9213;50.858;3.964;2023-05-27T06:48:23;13.43;;;5.67;;
18176;SDS011;9213;50.858;3.964;2023-05-27T06:50:50;13.97;;;5.73;;
18176;SDS011;9213;50.858;3.964;2023-05-27T06:53:17;17.67;;;5.73;;
18176;SDS011;9213;50.858;3.964;2023-05-27T06:55:44;15.43;;;5.87;;
18176;SDS011;9213;50.858;3.964;2023-05-27T06:58:11;13.60;;;5.95;;
18176;SDS011;9213;50.858;3.964;2023-05-27T07:00:38;18.98;;;6.30;;
18176;SDS011;9213;50.858;3.964;2023-05-27T07:03:04;13.97;;;5.90;;
18176;SDS011;9213;50.858;3.964;2023-05-27T07:05:33;14.55;;;6.28;;
18176;SDS011;9213;50.858;3.964;2023-05-27T07:08:00;16.50;;;6.22;;
18176;SDS011;9213;50.858;3.964;2023-05-27T07:10:26;17.80;;;6.60;;
18176;SDS011;9213;50.858;3.964;2023-05-27T07:12:53;17.23;;;6.28;;
18176;SDS011;9213;50.858;3.964;2023-05-27T07:15:20;15.40;;;6.60;;
18176;SDS011;9213;50.858;3.964;2023-05-27T07:17:47;18.33;;;6.85;;
18176;SDS011;9213;50.858;3.964;2023-05-27T07:20:14;14.40;;;6.37;;
18176;SDS011;9213;50.858;3.964;2023-05-27T07:22:43;17.43;;;6.20;;
18176;SDS011;9213;50.858;3.964;2023-05-27T07:25:09;18.73;;;6.87;;
18176;SDS011;9213;50.858;3.964;2023-05-27T07:27:36;17.73;;;6.28;;
18176;SDS011;9213;50.858;3.964;2023-05-27T07:30:04;14.73;;;5.93;;
18176;SDS011;9213;50.858;3.964;2023-05-27T07:32:32;14.73;;;6.40;;
18176;SDS011;9213;50.858;3.964;2023-05-27T07:34:58;14.73;;;5.85;;
18176;SDS011;9213;50.858;3.964;2023-05-27T07:37:26;15.05;;;6.43;;
18176;SDS011;9213;50.858;3.964;2023-05-27T07:39:56;14.75;;;6.40;;
18176;SDS011;9213;50.858;3.964;2023-05-27T07:42:23;15.25;;;6.50;;
18176;SDS011;9213;50.858;3.964;2023-05-27T07:44:50;12.37;;;6.17;;
18176;SDS011;9213;50.858;3.964;2023-05-27T07:47:17;16.47;;;6.13;;
18176;SDS011;9213;50.858;3.964;2023-05-27T07:49:44;16.87;;;6.30;;
18176;SDS011;9213;50.858;3.964;2023-05-27T07:52:11;11.23;;;6.07;;
18176;SDS011;9213;50.858;3.964;2023-05-27T07:54:37;14.73;;;6.47;;
18176;SDS011;9213;50.858;3.964;2023-05-27T07:57:06;14.98;;;6.15;;
18176;SDS011;9213;50.858;3.964;2023-05-27T07:59:33;16.10;;;6.53;;
18176;SDS011;9213;50.858;3.964;2023-05-27T08:02:00;15.98;;;6.60;;
18176;SDS011;9213;50.858;3.964;2023-05-27T08:04:27;13.52;;;6.18;;
18176;SDS011;9213;50.858;3.964;2023-05-27T08:06:53;10.27;;;5.18;;
18176;SDS011;9213;50.858;3.964;2023-05-27T08:09:20;17.35;;;5.63;;
18176;SDS011;9213;50.858;3.964;2023-05-27T08:11:47;14.90;;;6.15;;
18176;SDS011;9213;50.858;3.964;2023-05-27T08:14:16;17.40;;;5.95;;
18176;SDS011;9213;50.858;3.964;2023-05-27T08:16:42;16.23;;;6.22;;
18176;SDS011;9213;50.858;3.964;2023-05-27T08:19:10;14.32;;;6.00;;
18176;SDS011;9213;50.858;3.964;2023-05-27T08:21:36;17.08;;;6.53;;
18176;SDS011;9213;50.858;3.964;2023-05-27T08:24:03;15.55;;;6.00;;
18176;SDS011;9213;50.858;3.964;2023-05-27T08:26:30;13.90;;;6.35;;
18176;SDS011;9213;50.858;3.964;2023-05-27T08:28:57;14.38;;;6.20;;
18176;SDS011;9213;50.858;3.964;2023-05-27T08:31:26;11.57;;;5.90;;
18176;SDS011;9213;50.858;3.964;2023-05-27T08:33:52;14.73;;;6.18;;
18176;SDS011;9213;50.858;3.964;2023-05-27T08:36:19;14.38;;;5.88;;
18176;SDS011;9213;50.858;3.964;2023-05-27T08:38:46;16.15;;;5.90;;
18176;SDS011;9213;50.858;3.964;2023-05-27T08:41:13;11.95;;;5.60;;
18176;SDS011;9213;50.858;3.964;2023-05-27T08:43:41;12.40;;;5.95;;
18176;SDS011;9213;50.858;3.964;2023-05-27T08:46:08;15.25;;;6.22;;
18176;SDS011;9213;50.858;3.964;2023-05-27T08:48:36;12.63;;;5.55;;
18176;SDS011;9213;50.858;3.964;2023-05-27T08:51:03;15.95;;;5.65;;
18176;SDS011;9213;50.858;3.964;2023-05-27T08:53:31;11.93;;;5.25;;
18176;SDS011;9213;50.858;3.964;2023-05-27T08:56:00;12.60;;;5.22;;
18176;SDS011;9213;50.858;3.964;2023-05-27T08:58:27;12.85;;;5.32;;
18176;SDS011;9213;50.858;3.964;2023-05-27T09:00:55;12.15;;;5.38;;
18176;SDS011;9213;50.858;3.964;2023-05-27T09:03:22;11.05;;;5.57;;
18176;SDS011;9213;50.858;3.964;2023-05-27T09:05:53;14.55;;;5.88;;
18176;SDS011;9213;50.858;3.964;2023-05-27T09:08:21;12.43;;;5.53;;
18176;SDS011;9213;50.858;3.964;2023-05-27T09:10:48;12.07;;;5.80;;
18176;SDS011;9213;50.858;3.964;2023-05-27T09:13:24;14.57;;;5.43;;
18176;SDS011;9213;50.858;3.964;2023-05-27T09:15:57;15.18;;;6.40;;
18176;SDS011;9213;50.858;3.964;2023-05-27T09:18:25;14.48;;;5.97;;
18176;SDS011;9213;50.858;3.964;2023-05-27T09:20:54;17.05;;;6.82;;
18176;SDS011;9213;50.858;3.964;2023-05-27T09:23:21;13.77;;;7.13;;
18176;SDS011;9213;50.858;3.964;2023-05-27T09:25:49;14.55;;;7.50;;
18176;SDS011;9213;50.858;3.964;2023-05-27T09:28:19;11.85;;;5.45;;
18176;SDS011;9213;50.858;3.964;2023-05-27T09:30:50;16.05;;;5.80;;
18176;SDS011;9213;50.858;3.964;2023-05-27T09:33:25;14.10;;;5.50;;
18176;SDS011;9213;50.858;3.964;2023-05-27T09:35:55;11.48;;;5.47;;
18176;SDS011;9213;50.858;3.964;2023-05-27T09:38:22;17.17;;;6.20;;
18176;SDS011;9213;50.858;3.964;2023-05-27T09:40:48;11.50;;;4.72;;
18176;SDS011;9213;50.858;3.964;2023-05-27T09:43:15;15.65;;;5.82;;
18176;SDS011;9213;50.858;3.964;2023-05-27T09:45:42;11.68;;;5.40;;
18176;SDS011;9213;50.858;3.964;2023-05-27T09:48:11;12.57;;;5.70;;
18176;SDS011;9213;50.858;3.964;2023-05-27T09:50:39;13.45;;;6.18;;
18176;SDS011;9213;50.858;3.964;2023-05-27T09:53:08;14.10;;;5.72;;
18176;SDS011;9213;50.858;3.964;2023-05-27T09:55:36;12.10;;;6.07;;
18176;SDS011;9213;50.858;3.964;2023-05-27T09:58:04;13.43;;;5.78;;
18176;SDS011;9213;50.858;3.964;2023-05-27T10:00:32;16.90;;;5.78;;
18176;SDS011;9213;50.858;3.964;2023-05-27T10:03:00;14.00;;;5.63;;
18176;SDS011;9213;50.858;3.964;2023-05-27T10:05:27;15.10;;;5.97;;
18176;SDS011;9213;50.858;3.964;2023-05-27T10:07:55;16.33;;;5.78;;
18176;SDS011;9213;50.858;3.964;2023-05-27T10:10:24;13.57;;;5.22;;
18176;SDS011;9213;50.858;3.964;2023-05-27T10:12:52;16.70;;;6.05;;
18176;SDS011;9213;50.858;3.964;2023-05-27T10:15:22;16.38;;;5.90;;
18176;SDS011;9213;50.858;3.964;2023-05-27T10:17:52;14.27;;;5.93;;
18176;SDS011;9213;50.858;3.964;2023-05-27T10:20:23;11.43;;;5.63;;
18176;SDS011;9213;50.858;3.964;2023-05-27T10:22:52;14.32;;;6.07;;
18176;SDS011;9213;50.858;3.964;2023-05-27T10:25:19;13.60;;;5.55;;
18176;SDS011;9213;50.858;3.964;2023-05-27T10:27:48;13.07;;;5.18;;
18176;SDS011;9213;50.858;3.964;2023-05-27T10:30:15;14.82;;;5.32;;
18176;SDS011;9213;50.858;3.964;2023-05-27T10:32:47;12.77;;;5.60;;
18176;SDS011;9213;50.858;3.964;2023-05-27T10:35:15;13.40;;;5.80;;
18176;SDS011;9213;50.858;3.964;2023-05-27T10:37:42;11.23;;;5.18;;
18176;SDS011;9213;50.858;3.964;2023-05-27T10:40:10;12.25;;;5.95;;
18176;SDS011;9213;50.858;3.964;2023-05-27T10:42:37;12.52;;;5.20;;
18176;SDS011;9213;50.858;3.964;2023-05-27T10:45:06;12.52;;;4.65;;
18176;SDS011;9213;50.858;3.964;2023-05-27T10:47:36;15.38;;;5.65;;
18176;SDS011;9213;50.858;3.964;2023-05-27T10:50:09;10.77;;;5.32;;
18176;SDS011;9213;50.858;3.964;2023-05-27T10:52:38;16.65;;;5.75;;
18176;SDS011;9213;50.858;3.964;2023-05-27T10:55:06;13.13;;;5.15;;
18176;SDS011;9213;50.858;3.964;2023-05-27T10:57:34;12.65;;;5.03;;
18176;SDS011;9213;50.858;3.964;2023-05-27T11:00:02;13.75;;;5.70;;
18176;SDS011;9213;50.858;3.964;2023-05-27T11:02:35;15.70;;;5.07;;
18176;SDS011;9213;50.858;3.964;2023-05-27T11:05:10;11.77;;;5.20;;
18176;SDS011;9213;50.858;3.964;2023-05-27T11:07:40;11.55;;;4.90;;
18176;SDS011;9213;50.858;3.964;2023-05-27T11:10:08;15.95;;;5.40;;
18176;SDS011;9213;50.858;3.964;2023-05-27T11:12:35;12.88;;;5.55;;
18176;SDS011;9213;50.858;3.964;2023-05-27T11:15:02;11.93;;;4.90;;
18176;SDS011;9213;50.858;3.964;2023-05-27T11:17:30;13.63;;;5.28;;
18176;SDS011;9213;50.858;3.964;2023-05-27T11:19:58;13.55;;;5.13;;
18176;SDS011;9213;50.858;3.964;2023-05-27T11:22:26;13.05;;;5.10;;
18176;SDS011;9213;50.858;3.964;2023-05-27T11:24:56;17.75;;;5.32;;
18176;SDS011;9213;50.858;3.964;2023-05-27T11:27:24;10.60;;;4.60;;
18176;SDS011;9213;50.858;3.964;2023-05-27T11:29:57;11.93;;;4.82;;
18176;SDS011;9213;50.858;3.964;2023-05-27T11:32:24;10.82;;;4.53;;
18176;SDS011;9213;50.858;3.964;2023-05-27T11:34:51;11.70;;;4.90;;
18176;SDS011;9213;50.858;3.964;2023-05-27T11:37:22;10.55;;;4.63;;
18176;SDS011;9213;50.858;3.964;2023-05-27T11:39:49;13.57;;;4.85;;
18176;SDS011;9213;50.858;3.964;2023-05-27T11:42:20;14.93;;;4.50;;
18176;SDS011;9213;50.858;3.964;2023-05-27T11:44:49;12.70;;;4.72;;
18176;SDS011;9213;50.858;3.964;2023-05-27T11:47:17;15.80;;;5.22;;
18176;SDS011;9213;50.858;3.964;2023-05-27T11:49:44;14.27;;;4.88;;
18176;SDS011;9213;50.858;3.964;2023-05-27T11:52:12;10.57;;;4.65;;
18176;SDS011;9213;50.858;3.964;2023-05-27T11:54:40;13.32;;;4.88;;
18176;SDS011;9213;50.858;3.964;2023-05-27T11:57:07;13.02;;;4.43;;
18176;SDS011;9213;50.858;3.964;2023-05-27T11:59:35;12.38;;;4.80;;
18176;SDS011;9213;50.858;3.964;2023-05-27T12:02:03;14.75;;;4.88;;
18176;SDS011;9213;50.858;3.964;2023-05-27T12:04:30;10.30;;;4.82;;
18176;SDS011;9213;50.858;3.964;2023-05-27T12:06:57;11.10;;;4.55;;
18176;SDS011;9213;50.858;3.964;2023-05-27T12:09:25;11.00;;;4.78;;
18176;SDS011;9213;50.858;3.964;2023-05-27T12:11:54;12.30;;;4.35;;
18176;SDS011;9213;50.858;3.964;2023-05-27T12:14:20;10.68;;;4.57;;
18176;SDS011;9213;50.858;3.964;2023-05-27T12:16:47;13.95;;;4.75;;
18176;SDS011;9213;50.858;3.964;2023-05-27T12:19:14;10.93;;;4.15;;
18176;SDS011;9213;50.858;3.964;2023-05-27T12:21:41;14.70;;;5.05;;
18176;SDS011;9213;50.858;3.964;2023-05-27T12:24:08;12.85;;;4.63;;
18176;SDS011;9213;50.858;3.964;2023-05-27T12:26:36;13.10;;;4.53;;
18176;SDS011;9213;50.858;3.964;2023-05-27T12:29:07;11.27;;;4.20;;
18176;SDS011;9213;50.858;3.964;2023-05-27T12:31:34;9.73;;;4.10;;
18176;SDS011;9213;50.858;3.964;2023-05-27T12:34:01;9.80;;;5.70;;
18176;SDS011;9213;50.858;3.964;2023-05-27T12:36:28;14.18;;;5.95;;
18176;SDS011;9213;50.858;3.964;2023-05-27T12:38:55;12.52;;;4.75;;
18176;SDS011;9213;50.858;3.964;2023-05-27T12:41:22;9.88;;;4.32;;
18176;SDS011;9213;50.858;3.964;2023-05-27T12:43:48;12.48;;;4.45;;
18176;SDS011;9213;50.858;3.964;2023-05-27T12:46:17;12.38;;;4.57;;
18176;SDS011;9213;50.858;3.964;2023-05-27T12:48:44;11.82;;;4.05;;
18176;SDS011;9213;50.858;3.964;2023-05-27T12:51:11;15.57;;;4.90;;
18176;SDS011;9213;50.858;3.964;2023-05-27T12:53:38;14.63;;;4.22;;
18176;SDS011;9213;50.858;3.964;2023-05-27T12:56:05;9.77;;;4.15;;
18176;SDS011;9213;50.858;3.964;2023-05-27T12:58:32;10.40;;;4.30;;
18176;SDS011;9213;50.858;3.964;2023-05-27T13:00:59;10.48;;;3.97;;
18176;SDS011;9213;50.858;3.964;2023-05-27T13:03:28;9.88;;;4.03;;
18176;SDS011;9213;50.858;3.964;2023-05-27T13:05:55;13.07;;;4.40;;
18176;SDS011;9213;50.858;3.964;2023-05-27T13:08:22;10.95;;;3.95;;
18176;SDS011;9213;50.858;3.964;2023-05-27T13:10:49;13.45;;;4.35;;
18176;SDS011;9213;50.858;3.964;2023-05-27T13:13:16;18.45;;;4.30;;
18176;SDS011;9213;50.858;3.964;2023-05-27T13:15:44;12.70;;;4.00;;
18176;SDS011;9213;50.858;3.964;2023-05-27T13:18:11;10.02;;;4.30;;
18176;SDS011;9213;50.858;3.964;2023-05-27T13:20:39;8.43;;;3.80;;
18176;SDS011;9213;50.858;3.964;2023-05-27T13:23:06;9.20;;;4.00;;
18176;SDS011;9213;50.858;3.964;2023-05-27T13:25:33;10.15;;;4.13;;
18176;SDS011;9213;50.858;3.964;2023-05-27T13:28:00;8.05;;;3.42;;
18176;SDS011;9213;50.858;3.964;2023-05-27T13:30:27;8.70;;;3.70;;
18176;SDS011;9213;50.858;3.964;2023-05-27T13:32:54;8.82;;;3.70;;
18176;SDS011;9213;50.858;3.964;2023-05-27T13:35:22;13.00;;;3.90;;
18176;SDS011;9213;50.858;3.964;2023-05-27T13:37:50;9.93;;;3.55;;
18176;SDS011;9213;50.858;3.964;2023-05-27T13:40:18;9.93;;;3.83;;
18176;SDS011;9213;50.858;3.964;2023-05-27T13:42:45;8.93;;;3.95;;
18176;SDS011;9213;50.858;3.964;2023-05-27T13:45:11;9.85;;;4.30;;
18176;SDS011;9213;50.858;3.964;2023-05-27T13:47:38;9.52;;;3.75;;
18176;SDS011;9213;50.858;3.964;2023-05-27T13:50:08;8.32;;;4.15;;
18176;SDS011;9213;50.858;3.964;2023-05-27T13:52:35;9.70;;;4.45;;
18176;SDS011;9213;50.858;3.964;2023-05-27T13:55:04;7.78;;;3.33;;
18176;SDS011;9213;50.858;3.964;2023-05-27T13:57:32;12.88;;;4.00;;
18176;SDS011;9213;50.858;3.964;2023-05-27T13:59:59;9.20;;;4.20;;
18176;SDS011;9213;50.858;3.964;2023-05-27T14:02:26;9.80;;;4.32;;
18176;SDS011;9213;50.858;3.964;2023-05-27T14:04:53;10.82;;;4.57;;
18176;SDS011;9213;50.858;3.964;2023-05-27T14:07:20;9.23;;;4.28;;
18176;SDS011;9213;50.858;3.964;2023-05-27T14:09:48;9.50;;;4.13;;
18176;SDS011;9213;50.858;3.964;2023-05-27T14:12:16;10.52;;;3.92;;
18176;SDS011;9213;50.858;3.964;2023-05-27T14:14:43;11.88;;;4.60;;
18176;SDS011;9213;50.858;3.964;2023-05-27T14:17:10;9.82;;;3.78;;
18176;SDS011;9213;50.858;3.964;2023-05-27T14:19:37;12.73;;;4.32;;
18176;SDS011;9213;50.858;3.964;2023-05-27T14:22:04;9.15;;;3.75;;
18176;SDS011;9213;50.858;3.964;2023-05-27T14:24:31;12.02;;;4.45;;
18176;SDS011;9213;50.858;3.964;2023-05-27T14:26:58;9.63;;;4.28;;
18176;SDS011;9213;50.858;3.964;2023-05-27T14:29:27;6.60;;;4.05;;
18176;SDS011;9213;50.858;3.964;2023-05-27T14:31:54;9.82;;;4.03;;
18176;SDS011;9213;50.858;3.964;2023-05-27T14:34:21;12.95;;;4.20;;
18176;SDS011;9213;50.858;3.964;2023-05-27T14:36:48;8.85;;;4.28;;
18176;SDS011;9213;50.858;3.964;2023-05-27T14:39:15;7.68;;;4.10;;
18176;SDS011;9213;50.858;3.964;2023-05-27T14:41:42;14.52;;;4.10;;
18176;SDS011;9213;50.858;3.964;2023-05-27T14:44:09;12.60;;;4.35;;
18176;SDS011;9213;50.858;3.964;2023-05-27T14:46:37;10.95;;;4.07;;
18176;SDS011;9213;50.858;3.964;2023-05-27T14:49:04;9.40;;;3.85;;
18176;SDS011;9213;50.858;3.964;2023-05-27T14:51:31;8.75;;;4.22;;